Time;durP1;ratioP1;P1;durP2;ratioP2;P2;SDS_P1;SDS_P2;PMS_P1;PMS_P2;Temp;Humidity;BMP_temperature;BMP_pressure;BME280_temperature;BME280_humidity;BME280_pressure;Samples;Min_cycle;Max_cycle;Signal;HPM_P1;HPM_P2
2023/03/17 00:01:54;;;;;;;3.50;3.20;;;8.20;99.90;;;;;;4938143;28;96747;-75
2023/03/17 00:04:23;;;;;;;3.40;3.10;;;8.20;99.90;;;;;;4956545;28;95242;-75
2023/03/17 00:06:51;;;;;;;4.60;3.17;;;8.20;99.90;;;;;;4972149;28;92555;-75
2023/03/17 00:09:19;;;;;;;5.20;3.42;;;8.20;99.90;;;;;;4971141;28;96633;-75
2023/03/17 00:11:46;;;;;;;4.50;3.45;;;8.20;99.90;;;;;;4939478;28;93340;-75
2023/03/17 00:14:13;;;;;;;5.10;3.70;;;8.20;99.90;;;;;;4956925;28;93072;-75
2023/03/17 00:16:43;;;;;;;4.10;3.67;;;8.20;99.90;;;;;;4956801;28;93033;-75
2023/03/17 00:19:24;;;;;;;3.92;3.50;;;8.30;99.90;;;;;;4957262;28;91850;-75
2023/03/17 00:21:52;;;;;;;5.47;3.53;;;8.30;99.90;;;;;;4955742;28;92817;-75
2023/03/17 00:24:19;;;;;;;5.30;3.47;;;8.20;99.90;;;;;;4939138;28;94206;-75
2023/03/17 00:26:46;;;;;;;5.70;3.42;;;8.20;99.90;;;;;;4955565;28;94790;-75
2023/03/17 00:29:15;;;;;;;5.63;3.85;;;8.20;99.90;;;;;;4922766;28;92493;-75
2023/03/17 00:31:44;;;;;;;4.25;3.85;;;8.20;99.90;;;;;;4938628;28;97267;-75
2023/03/17 00:34:17;;;;;;;4.70;3.80;;;8.20;99.90;;;;;;4939054;28;95815;-75
2023/03/17 00:36:48;;;;;;;4.03;3.45;;;8.20;99.90;;;;;;4956822;28;92468;-75
2023/03/17 00:39:15;;;;;;;5.95;4.25;;;8.20;99.90;;;;;;4956597;28;92436;-75
2023/03/17 00:41:42;;;;;;;4.72;3.80;;;8.20;99.90;;;;;;4938838;28;93028;-75
2023/03/17 00:44:10;;;;;;;4.13;3.72;;;8.20;99.90;;;;;;4939212;28;95497;-75
2023/03/17 00:46:40;;;;;;;5.15;4.20;;;8.20;99.90;;;;;;4939326;28;92561;-75
2023/03/17 00:49:14;;;;;;;6.32;4.40;;;8.20;99.90;;;;;;4938921;28;92540;-75
2023/03/17 00:51:42;;;;;;;;;;;8.20;99.90;;;;;;4970495;28;98209;-75
2023/03/17 00:54:10;;;;;;;4.20;3.90;;;8.20;99.90;;;;;;4955407;28;97548;-75
2023/03/17 00:56:39;;;;;;;4.43;4.05;;;8.10;99.90;;;;;;4938953;28;92597;-75
2023/03/17 00:59:27;;;;;;;4.28;3.88;;;8.20;99.90;;;;;;4938404;28;92594;-75
2023/03/17 01:01:55;;;;;;;4.95;4.18;;;8.30;99.90;;;;;;4956563;28;93288;-75
2023/03/17 01:04:22;;;;;;;4.50;4.10;;;8.20;99.90;;;;;;4922594;28;94580;-75
2023/03/17 01:06:51;;;;;;;3.92;3.55;;;8.10;99.90;;;;;;4938440;28;92487;-75
2023/03/17 01:09:20;;;;;;;4.38;3.38;;;8.20;99.90;;;;;;4922745;28;91918;-75
2023/03/17 01:11:48;;;;;;;8.23;4.63;;;8.10;99.90;;;;;;4956047;28;93212;-75
2023/03/17 01:14:15;;;;;;;4.95;4.32;;;8.10;99.90;;;;;;4938432;28;95646;-75
2023/03/17 01:16:43;;;;;;;4.70;4.22;;;8.20;99.90;;;;;;4937085;28;94963;-75
2023/03/17 01:19:11;;;;;;;5.78;3.88;;;8.20;99.90;;;;;;4922724;28;92512;-75
2023/03/17 01:21:39;;;;;;;6.25;4.47;;;8.20;99.90;;;;;;4921978;28;95734;-75
2023/03/17 01:24:07;;;;;;;4.68;4.18;;;8.10;99.90;;;;;;4956033;28;93135;-75
2023/03/17 01:26:34;;;;;;;5.28;4.72;;;8.10;99.90;;;;;;4938621;28;92587;-75
2023/03/17 01:29:01;;;;;;;5.35;4.43;;;8.10;99.90;;;;;;4938035;28;92567;-75
2023/03/17 01:31:28;;;;;;;3.88;3.47;;;8.20;99.90;;;;;;4938508;28;93208;-75
2023/03/17 01:33:55;;;;;;;5.05;4.55;;;8.10;99.90;;;;;;4940969;28;91952;-75
2023/03/17 01:36:23;;;;;;;5.82;4.55;;;8.10;99.90;;;;;;4941642;28;92543;-75
2023/03/17 01:38:50;;;;;;;4.50;4.10;;;8.10;99.90;;;;;;4974187;28;92603;-75
2023/03/17 01:41:19;;;;;;;5.00;4.43;;;8.10;99.90;;;;;;4940061;28;98216;-75
2023/03/17 01:43:46;;;;;;;4.88;4.22;;;8.20;99.90;;;;;;4941134;28;98119;-75
2023/03/17 01:46:29;;;;;;;4.30;3.90;;;8.20;99.90;;;;;;4941585;28;92497;-75
2023/03/17 01:49:05;;;;;;;5.30;4.25;;;8.20;99.90;;;;;;4957577;28;92442;-75
2023/03/17 01:51:37;;;;;;;4.97;4.47;;;8.10;99.90;;;;;;4959245;28;93271;-75
2023/03/17 01:54:10;;;;;;;6.47;4.47;;;8.10;99.90;;;;;;4959043;28;92792;-75
2023/03/17 01:56:40;;;;;;;5.07;4.43;;;8.20;99.90;;;;;;4941434;28;92418;-75
2023/03/17 01:59:15;;;;;;;4.75;4.35;;;8.10;99.90;;;;;;4957916;28;91769;-75
2023/03/17 02:01:46;;;;;;;6.82;4.90;;;8.10;99.90;;;;;;4957168;28;95946;-75
2023/03/17 02:04:13;;;;;;;6.93;4.82;;;8.10;99.90;;;;;;4957821;28;93091;-75
2023/03/17 02:06:40;;;;;;;5.28;4.78;;;8.10;99.90;;;;;;4940329;28;94876;-75
2023/03/17 02:09:22;;;;;;;5.72;4.03;;;8.10;99.90;;;;;;4973537;28;92554;-75
2023/03/17 02:11:49;;;;;;;4.38;3.97;;;8.10;99.90;;;;;;4941119;28;93289;-75
2023/03/17 02:14:16;;;;;;;4.85;4.28;;;8.10;99.90;;;;;;4973886;28;95590;-75
2023/03/17 02:16:44;;;;;;;5.80;4.40;;;8.10;99.90;;;;;;4941008;28;92504;-75
2023/03/17 02:19:11;;;;;;;5.75;4.57;;;8.00;99.90;;;;;;4958879;28;92450;-75
2023/03/17 02:21:41;;;;;;;7.38;4.90;;;8.10;99.90;;;;;;4940622;28;95805;-75
2023/03/17 02:24:18;;;;;;;5.57;4.72;;;8.10;99.90;;;;;;4973880;28;95604;-75
2023/03/17 02:26:46;;;;;;;4.70;4.30;;;8.10;99.90;;;;;;4958816;28;92434;-75
2023/03/17 02:29:14;;;;;;;5.53;4.40;;;8.10;99.90;;;;;;4940891;28;92481;-75
2023/03/17 02:31:42;;;;;;;5.22;4.65;;;8.00;99.90;;;;;;4955634;28;98096;-75
2023/03/17 02:34:09;;;;;;;8.68;4.82;;;8.00;99.90;;;;;;4924967;28;98598;-75
2023/03/17 02:36:36;;;;;;;5.20;4.45;;;8.00;99.90;;;;;;4940776;28;92495;-75
2023/03/17 02:39:04;;;;;;;5.60;5.10;;;8.00;99.90;;;;;;4924729;28;92457;-75
2023/03/17 02:41:31;;;;;;;5.05;4.35;;;8.00;99.90;;;;;;4956894;28;92500;-75
2023/03/17 02:43:58;;;;;;;5.22;4.70;;;7.90;99.90;;;;;;4972346;28;95405;-75
2023/03/17 02:46:26;;;;;;;5.70;4.50;;;7.90;99.90;;;;;;4958120;28;92436;-75
2023/03/17 02:48:54;;;;;;;5.13;4.45;;;7.90;99.90;;;;;;4924556;28;91798;-75
2023/03/17 02:51:21;;;;;;;5.75;4.68;;;7.80;99.90;;;;;;4957119;28;93327;-75
2023/03/17 02:53:48;;;;;;;4.97;4.45;;;7.80;99.90;;;;;;4940447;28;93013;-75
2023/03/17 02:56:15;;;;;;;6.30;4.97;;;7.90;99.90;;;;;;4939662;28;95372;-75
2023/03/17 02:58:42;;;;;;;4.75;4.30;;;7.90;99.90;;;;;;4940531;28;92941;-75
2023/03/17 03:01:09;;;;;;;4.65;4.15;;;7.90;99.90;;;;;;4957972;28;93149;-75
2023/03/17 03:03:37;;;;;;;5.95;4.85;;;7.90;99.90;;;;;;4972846;28;95878;-75
2023/03/17 03:06:04;;;;;;;5.88;4.28;;;7.90;99.90;;;;;;4940314;28;98557;-75
2023/03/17 03:08:32;;;;;;;5.95;4.65;;;7.90;99.90;;;;;;4940310;28;92584;-75
2023/03/17 03:11:01;;;;;;;5.03;4.13;;;8.00;99.90;;;;;;4957711;28;92929;-75
2023/03/17 03:13:28;;;;;;;5.65;4.45;;;8.00;99.90;;;;;;4973164;28;96021;-75
2023/03/17 03:15:55;;;;;;;5.05;4.55;;;8.00;99.90;;;;;;4972632;28;92519;-75
2023/03/17 03:18:22;;;;;;;7.22;4.47;;;8.00;99.90;;;;;;4940291;28;92647;-75
2023/03/17 03:20:49;;;;;;;4.40;4.00;;;8.00;99.90;;;;;;4954285;28;105692;-75
2023/03/17 03:23:16;;;;;;;5.40;4.38;;;8.00;99.90;;;;;;4940079;28;95370;-75
2023/03/17 03:25:43;;;;;;;5.38;4.20;;;8.00;99.90;;;;;;4972716;28;92570;-75
2023/03/17 03:28:10;;;;;;;6.13;5.03;;;8.00;99.90;;;;;;4940210;28;92478;-75
2023/03/17 03:30:37;;;;;;;5.10;4.22;;;7.90;99.90;;;;;;4940022;28;93318;-75
2023/03/17 03:33:04;;;;;;;6.10;4.00;;;8.00;99.90;;;;;;4957342;28;93272;-75
2023/03/17 03:35:33;;;;;;;4.85;4.35;;;8.00;99.90;;;;;;4923866;28;92908;-75
2023/03/17 03:38:00;;;;;;;6.32;4.43;;;7.90;99.90;;;;;;4957480;28;96901;-75
2023/03/17 03:40:27;;;;;;;5.18;4.60;;;8.00;99.90;;;;;;4957525;28;93161;-75
2023/03/17 03:42:55;;;;;;;6.40;4.50;;;7.90;99.90;;;;;;4939904;28;92992;-75
2023/03/17 03:45:22;;;;;;;6.43;4.60;;;7.90;99.90;;;;;;4956387;28;94873;-75
2023/03/17 03:47:49;;;;;;;6.88;4.57;;;7.90;99.90;;;;;;4956350;28;93120;-75
2023/03/17 03:50:16;;;;;;;7.05;3.97;;;7.90;99.90;;;;;;4957178;28;96322;-75
2023/03/17 03:52:43;;;;;;;4.65;4.22;;;7.90;99.90;;;;;;4939838;28;93029;-75
2023/03/17 03:55:10;;;;;;;5.78;4.50;;;8.00;99.90;;;;;;4955683;28;92500;-75
2023/03/17 03:57:37;;;;;;;5.72;4.57;;;8.00;99.90;;;;;;4939884;28;92425;-75
2023/03/17 04:00:06;;;;;;;5.88;4.68;;;8.00;99.90;;;;;;4956902;28;98377;-75
2023/03/17 04:02:43;;;;;;;5.40;4.30;;;8.00;99.90;;;;;;4969309;28;92289;-75
2023/03/17 04:05:15;;;;;;;4.32;3.92;;;8.00;99.90;;;;;;4939064;28;92714;-75
2023/03/17 04:07:42;;;;;;;4.47;4.00;;;8.00;99.90;;;;;;4956288;28;92623;-75
2023/03/17 04:10:11;;;;;;;5.25;4.75;;;8.00;99.90;;;;;;4955736;28;95507;-75
2023/03/17 04:12:38;;;;;;;5.63;4.45;;;8.00;99.90;;;;;;4971857;28;98145;-75
2023/03/17 04:15:07;;;;;;;6.93;4.50;;;8.00;99.90;;;;;;4907294;28;92573;-75
2023/03/17 04:17:35;;;;;;;5.35;3.75;;;8.00;99.90;;;;;;4939435;28;92955;-75
2023/03/17 04:20:02;;;;;;;6.90;4.45;;;8.10;99.90;;;;;;4938791;28;95750;-75
2023/03/17 04:22:29;;;;;;;4.55;4.15;;;8.10;99.90;;;;;;4956471;28;104117;-75
2023/03/17 04:24:56;;;;;;;4.95;3.97;;;8.00;99.90;;;;;;4956599;28;92445;-75
2023/03/17 04:27:23;;;;;;;4.20;3.72;;;8.00;99.90;;;;;;4957450;28;91705;-75
2023/03/17 04:29:50;;;;;;;5.07;4.15;;;8.00;99.90;;;;;;4971611;28;95986;-75
2023/03/17 04:32:17;;;;;;;5.47;4.30;;;8.00;99.90;;;;;;4956528;28;94499;-75
2023/03/17 04:34:44;;;;;;;5.13;3.85;;;8.00;99.90;;;;;;4970706;28;95002;-75
2023/03/17 04:37:11;;;;;;;4.93;3.92;;;8.00;99.90;;;;;;4956748;28;93020;-75
2023/03/17 04:39:38;;;;;;;5.45;3.72;;;8.00;99.90;;;;;;4956278;28;95889;-75
2023/03/17 04:42:05;;;;;;;4.57;3.88;;;8.00;99.90;;;;;;4956268;28;93070;-75
2023/03/17 04:44:32;;;;;;;5.25;3.65;;;8.00;99.90;;;;;;4939024;28;92909;-75
2023/03/17 04:46:59;;;;;;;5.47;4.38;;;8.00;99.90;;;;;;4956762;28;92456;-75
2023/03/17 04:49:27;;;;;;;4.60;4.00;;;8.00;99.90;;;;;;4938980;28;93333;-75
2023/03/17 04:51:54;;;;;;;5.35;4.63;;;8.00;99.90;;;;;;4956230;28;104638;-75
2023/03/17 04:54:21;;;;;;;5.93;4.20;;;8.00;99.90;;;;;;4939243;28;92525;-75
2023/03/17 04:56:48;;;;;;;5.63;4.35;;;8.00;99.90;;;;;;4939152;28;92739;-75
2023/03/17 04:59:15;;;;;;;5.00;4.43;;;8.00;99.90;;;;;;4954764;28;95595;-75
2023/03/17 05:01:42;;;;;;;4.30;3.90;;;8.00;99.90;;;;;;4938354;28;108543;-75
2023/03/17 05:04:09;;;;;;;7.68;4.63;;;8.00;99.90;;;;;;4954777;28;92559;-75
2023/03/17 05:06:42;;;;;;;4.30;3.90;;;8.00;99.90;;;;;;4939237;28;92543;-75
2023/03/17 05:09:09;;;;;;;4.78;3.70;;;7.90;99.90;;;;;;4936889;28;95814;-75
2023/03/17 05:11:36;;;;;;;4.93;3.83;;;8.00;99.90;;;;;;4938850;28;92936;-75
2023/03/17 05:14:03;;;;;;;4.53;4.10;;;7.90;99.90;;;;;;4956077;28;92456;-75
2023/03/17 05:16:30;;;;;;;4.93;4.05;;;7.90;99.90;;;;;;4956305;28;96485;-75
2023/03/17 05:18:57;;;;;;;4.82;4.10;;;7.90;99.90;;;;;;4956088;28;93801;-75
2023/03/17 05:21:24;;;;;;;5.47;3.75;;;7.90;99.90;;;;;;4938575;28;93831;-75
2023/03/17 05:23:50;;;;;;;4.28;3.88;;;7.90;99.90;;;;;;4937256;28;94860;-75
2023/03/17 05:26:20;;;;;;;4.25;3.63;;;8.00;99.90;;;;;;4954464;28;92756;-75
2023/03/17 05:28:47;;;;;;;3.60;3.30;;;7.90;99.90;;;;;;4938546;28;93331;-75
2023/03/17 05:31:14;;;;;;;4.18;3.78;;;8.00;99.90;;;;;;4955976;28;92928;-75
2023/03/17 05:33:42;;;;;;;4.38;3.97;;;8.00;99.90;;;;;;4938362;28;92551;-75
2023/03/17 05:36:09;;;;;;;5.43;4.70;;;8.00;99.90;;;;;;4954310;28;92567;-75
2023/03/17 05:38:36;;;;;;;4.88;3.55;;;8.10;99.90;;;;;;4937535;28;107409;-75
2023/03/17 05:41:03;;;;;;;4.55;4.03;;;8.10;99.90;;;;;;4938828;28;93186;-75
2023/03/17 05:43:30;;;;;;;5.40;3.85;;;8.00;99.90;;;;;;4955980;28;92467;-75
2023/03/17 05:45:57;;;;;;;4.35;3.80;;;8.10;99.90;;;;;;4956167;28;93122;-75
2023/03/17 05:48:24;;;;;;;4.10;3.78;;;8.10;99.90;;;;;;4954188;28;95433;-75
2023/03/17 05:50:51;;;;;;;4.45;3.47;;;8.10;99.90;;;;;;4955186;28;105771;-75
2023/03/17 05:53:18;;;;;;;4.95;4.03;;;8.10;99.90;;;;;;4955781;28;92508;-75
2023/03/17 05:55:45;;;;;;;4.40;4.00;;;8.10;99.90;;;;;;4938636;28;92712;-75
2023/03/17 05:58:14;;;;;;;4.45;3.55;;;8.10;99.90;;;;;;4955419;28;93305;-75
2023/03/17 06:00:42;;;;;;;5.45;4.40;;;8.10;99.90;;;;;;4955288;28;95363;-75
2023/03/17 06:03:09;;;;;;;4.93;4.13;;;8.10;99.90;;;;;;4955481;28;92430;-75
2023/03/17 06:05:36;;;;;;;4.40;3.58;;;8.10;99.90;;;;;;4938146;28;91866;-75
2023/03/17 06:08:04;;;;;;;5.18;3.60;;;8.10;99.90;;;;;;4970106;28;95753;-75
2023/03/17 06:10:32;;;;;;;4.43;4.00;;;8.10;99.90;;;;;;4955470;28;93007;-75
2023/03/17 06:12:59;;;;;;;5.78;3.53;;;8.10;99.90;;;;;;4954478;28;94860;-75
2023/03/17 06:15:29;;;;;;;5.07;3.50;;;8.10;99.90;;;;;;4970175;28;92450;-75
2023/03/17 06:17:58;;;;;;;4.82;3.63;;;8.20;99.90;;;;;;4937640;28;103736;-75
2023/03/17 06:20:24;;;;;;;4.07;3.67;;;8.20;99.90;;;;;;4958085;28;92997;-75
2023/03/17 06:22:51;;;;;;;3.90;3.60;;;8.30;99.90;;;;;;4941336;28;92375;-75
2023/03/17 06:25:30;;;;;;;5.82;3.75;;;8.40;99.90;;;;;;4973489;28;92498;-75
2023/03/17 06:28:01;;;;;;;4.20;3.60;;;8.50;99.90;;;;;;4958219;28;101093;-75
2023/03/17 06:30:29;;;;;;;4.43;3.40;;;8.70;99.90;;;;;;4941964;28;92969;-75
2023/03/17 06:32:56;;;;;;;4.00;3.55;;;8.80;99.90;;;;;;4958663;28;92959;-75
2023/03/17 06:35:24;;;;;;;4.30;3.65;;;9.00;99.90;;;;;;4958293;28;92497;-75
2023/03/17 06:37:51;;;;;;;4.57;3.20;;;9.30;99.90;;;;;;4939590;28;94924;-75
2023/03/17 06:40:18;;;;;;;3.97;3.47;;;9.60;99.90;;;;;;4924120;28;108019;-75
2023/03/17 06:42:45;;;;;;;4.57;3.13;;;9.80;99.90;;;;;;4957174;28;92571;-75
2023/03/17 06:45:13;;;;;;;4.32;3.38;;;10.00;99.90;;;;;;4957126;28;93333;-75
2023/03/17 06:47:40;;;;;;;4.85;3.53;;;10.10;99.90;;;;;;4940121;28;94075;-75
2023/03/17 06:50:11;;;;;;;3.78;3.33;;;10.30;99.90;;;;;;4958402;28;93186;-75
2023/03/17 06:52:38;;;;;;;4.65;3.30;;;10.40;99.90;;;;;;4941581;28;92619;-75
2023/03/17 06:55:07;;;;;;;3.03;2.83;;;10.60;99.90;;;;;;4958173;28;96306;-75
2023/03/17 06:57:35;;;;;;;4.13;3.67;;;10.90;99.90;;;;;;4957039;28;93315;-75
2023/03/17 07:00:05;;;;;;;3.67;3.38;;;11.30;99.90;;;;;;4940580;28;95523;-75
2023/03/17 07:02:33;;;;;;;4.60;3.72;;;11.70;99.90;;;;;;4923364;28;94866;-76
2023/03/17 07:05:00;;;;;;;3.55;3.05;;;12.00;99.70;;;;;;4958233;28;92493;-76
2023/03/17 07:07:27;;;;;;;4.05;3.22;;;12.10;99.30;;;;;;4972630;28;95766;-76
2023/03/17 07:09:54;;;;;;;3.63;3.33;;;12.00;99.30;;;;;;4956209;28;92494;-76
2023/03/17 07:12:21;;;;;;;3.65;3.35;;;12.00;99.40;;;;;;4972524;28;92664;-76
2023/03/17 07:14:48;;;;;;;4.50;3.00;;;12.00;99.60;;;;;;4957963;28;92449;-76
2023/03/17 07:17:15;;;;;;;4.55;3.03;;;11.90;99.50;;;;;;4939783;28;95751;-76
2023/03/17 07:19:42;;;;;;;3.67;3.22;;;11.70;99.40;;;;;;4956554;28;102507;-76
2023/03/17 07:22:11;;;;;;;5.03;3.80;;;11.70;99.50;;;;;;4957566;28;92462;-75
2023/03/17 07:24:38;;;;;;;3.50;3.13;;;11.60;99.50;;;;;;4971793;28;93953;-75
2023/03/17 07:27:05;;;;;;;6.20;3.80;;;11.80;99.70;;;;;;4955329;28;98168;-75
2023/03/17 07:29:33;;;;;;;3.55;3.10;;;11.90;99.40;;;;;;4955889;28;98229;-76
2023/03/17 07:32:01;;;;;;;4.25;3.03;;;12.10;99.30;;;;;;4955995;28;92453;-76
2023/03/17 07:34:28;;;;;;;3.22;2.92;;;12.30;99.30;;;;;;4956485;28;92357;-76
2023/03/17 07:36:55;;;;;;;2.92;2.70;;;12.40;98.70;;;;;;4957367;28;93088;-76
2023/03/17 07:39:22;;;;;;;3.38;3.00;;;12.50;98.70;;;;;;4957257;28;92979;-76
2023/03/17 07:41:54;;;;;;;3.83;3.42;;;12.60;98.70;;;;;;4955935;28;102423;-76
2023/03/17 07:44:22;;;;;;;6.68;4.45;;;12.70;98.60;;;;;;4958341;28;91720;-76
2023/03/17 07:46:50;;;;;;;3.78;3.45;;;12.90;98.60;;;;;;4956080;28;93141;-76
2023/03/17 07:49:17;;;;;;;6.03;4.70;;;13.20;98.20;;;;;;4972148;28;93143;-76
2023/03/17 07:51:56;;;;;;;4.35;3.45;;;13.50;98.10;;;;;;4954896;28;94927;-76
2023/03/17 07:54:24;;;;;;;3.03;2.72;;;13.80;97.70;;;;;;4955646;28;102326;-76
2023/03/17 07:56:52;;;;;;;5.05;3.30;;;14.00;97.00;;;;;;4955788;28;95897;-76
2023/03/17 07:59:19;;;;;;;4.00;3.70;;;14.10;96.60;;;;;;4955468;28;99502;-76
2023/03/17 08:01:46;;;;;;;5.75;5.15;;;14.10;96.70;;;;;;4939572;28;92546;-76
2023/03/17 08:04:13;;;;;;;4.85;3.33;;;14.20;96.50;;;;;;4957544;28;92426;-76
2023/03/17 08:06:41;;;;;;;3.30;3.00;;;14.30;96.30;;;;;;4971939;28;93316;-76
2023/03/17 08:09:12;;;;;;;5.15;3.20;;;14.40;96.20;;;;;;4939616;28;95687;-76
2023/03/17 08:11:39;;;;;;;4.05;3.10;;;14.50;96.00;;;;;;4957324;28;92489;-76
2023/03/17 08:14:06;;;;;;;17.60;16.80;;;14.40;95.80;;;;;;4955404;28;100289;-76
2023/03/17 08:16:33;;;;;;;12.27;11.57;;;14.40;95.70;;;;;;4969696;28;96589;-76
2023/03/17 08:19:02;;;;;;;10.45;9.85;;;14.70;95.70;;;;;;4954936;28;97946;-76
2023/03/17 08:21:30;;;;;;;8.20;7.60;;;15.10;95.40;;;;;;4956539;28;92858;-76
2023/03/17 08:23:57;;;;;;;12.75;12.05;;;15.60;94.90;;;;;;4971593;28;99043;-76
2023/03/17 08:26:24;;;;;;;11.48;10.48;;;16.00;93.90;;;;;;4954790;28;95878;-76
2023/03/17 08:28:51;;;;;;;6.10;3.00;;;16.40;93.20;;;;;;4956064;28;92499;-76
2023/03/17 08:31:20;;;;;;;3.47;3.00;;;16.70;92.80;;;;;;4955624;28;92594;-76
2023/03/17 08:33:52;;;;;;;3.55;2.88;;;16.90;92.20;;;;;;4955571;28;91654;-76
2023/03/17 08:36:20;;;;;;;4.40;3.42;;;17.00;91.70;;;;;;4971623;28;93037;-76
2023/03/17 08:38:47;;;;;;;3.65;3.35;;;16.80;91.50;;;;;;4956296;28;93063;-76
2023/03/17 08:41:20;;;;;;;3.28;3.08;;;16.70;91.10;;;;;;4954516;28;94823;-76
2023/03/17 08:43:49;;;;;;;4.95;2.90;;;16.50;90.90;;;;;;4955263;28;92424;-76
2023/03/17 08:46:20;;;;;;;4.97;3.10;;;16.40;91.30;;;;;;4938809;28;103146;-76
2023/03/17 08:48:50;;;;;;;3.92;3.50;;;16.30;91.60;;;;;;4954762;28;95460;-76
2023/03/17 08:51:17;;;;;;;3.60;3.30;;;16.10;91.80;;;;;;4971730;28;92492;-76
2023/03/17 08:53:47;;;;;;;4.45;3.25;;;16.10;91.70;;;;;;4956606;28;92381;-76
2023/03/17 08:56:15;;;;;;;3.78;3.38;;;16.10;92.00;;;;;;4954684;28;95818;-76
2023/03/17 08:58:43;;;;;;;3.50;3.20;;;16.10;91.90;;;;;;4971019;28;95563;-76
2023/03/17 09:01:10;;;;;;;5.40;3.22;;;16.20;91.80;;;;;;4956586;28;92590;-76
2023/03/17 09:03:39;;;;;;;3.70;3.30;;;16.30;91.90;;;;;;4955938;28;93049;-76
2023/03/17 09:06:10;;;;;;;4.63;3.50;;;16.40;91.90;;;;;;4953792;28;95560;-76
2023/03/17 09:08:39;;;;;;;3.85;3.53;;;16.50;92.00;;;;;;4955465;28;95440;-76
2023/03/17 09:11:07;;;;;;;4.30;3.30;;;16.50;92.20;;;;;;4971654;28;92559;-76
2023/03/17 09:13:36;;;;;;;3.20;3.00;;;16.50;92.30;;;;;;4954629;28;92643;-76
2023/03/17 09:16:06;;;;;;;3.72;3.08;;;16.40;92.50;;;;;;4955721;28;93217;-76
2023/03/17 09:18:33;;;;;;;3.80;3.10;;;16.30;92.80;;;;;;4955700;28;103142;-76
2023/03/17 09:21:02;;;;;;;5.38;3.22;;;16.30;92.90;;;;;;4970522;28;92471;-76
2023/03/17 09:23:29;;;;;;;5.18;3.30;;;16.20;93.10;;;;;;4956545;28;92141;-76
2023/03/17 09:25:56;;;;;;;3.42;3.13;;;16.10;93.20;;;;;;4970556;28;94745;-76
2023/03/17 09:28:23;;;;;;;3.90;3.50;;;16.10;93.20;;;;;;4970824;28;94179;-76
2023/03/17 09:30:51;;;;;;;3.85;3.45;;;16.00;93.30;;;;;;4954545;28;94739;-76
2023/03/17 09:33:18;;;;;;;3.80;3.33;;;15.90;93.50;;;;;;4970814;28;92408;-76
2023/03/17 09:35:45;;;;;;;3.35;3.05;;;15.90;93.40;;;;;;4937928;28;96103;-76
2023/03/17 09:38:12;;;;;;;5.10;3.50;;;16.10;93.50;;;;;;4955855;28;92998;-76
2023/03/17 09:41:10;;;;;;;4.10;3.22;;;16.20;93.30;;;;;;4987144;28;92481;-76
2023/03/17 09:44:02;;;;;;;3.58;2.92;;;16.40;93.10;;;;;;4933626;28;92500;-76
2023/03/17 09:46:52;;;;;;;3.78;3.30;;;16.50;92.90;;;;;;4955762;28;92991;-76
2023/03/17 09:49:24;;;;;;;5.82;3.67;;;16.50;92.90;;;;;;4956267;28;93009;-76
2023/03/17 09:51:52;;;;;;;4.82;3.20;;;16.50;93.20;;;;;;4955045;28;92522;-76
2023/03/17 09:54:34;;;;;;;3.30;3.00;;;16.60;93.10;;;;;;4957166;28;92587;-76
2023/03/17 09:57:28;;;;;;;6.88;3.20;;;16.60;92.70;;;;;;4956653;28;95562;-76
2023/03/17 10:00:00;;;;;;;;;;;16.60;92.60;;;;;;4959426;28;95451;-76
2023/03/17 10:02:30;;;;;;;6.18;3.17;;;16.30;92.70;;;;;;4960463;28;92515;-76
2023/03/17 10:04:58;;;;;;;4.07;3.13;;;16.20;92.90;;;;;;4958909;28;92424;-76
2023/03/17 10:07:52;;;;;;;5.63;3.47;;;16.30;92.90;;;;;;4957507;28;95956;-76
2023/03/17 10:10:28;;;;;;;5.63;3.90;;;16.40;93.00;;;;;;4957328;28;95442;-76
2023/03/17 10:13:03;;;;;;;6.85;3.80;;;16.30;93.10;;;;;;4959017;28;92589;-76
2023/03/17 10:15:37;;;;;;;7.53;4.50;;;16.10;93.00;;;;;;4958275;28;91819;-76
2023/03/17 10:18:15;;;;;;;4.22;3.72;;;16.20;92.90;;;;;;4958655;28;93316;-76
2023/03/17 10:20:54;;;;;;;4.60;3.35;;;16.20;93.30;;;;;;4973725;28;93095;-76
2023/03/17 10:23:27;;;;;;;4.20;3.50;;;16.20;93.10;;;;;;4957422;28;94772;-76
2023/03/17 10:25:59;;;;;;;5.60;3.90;;;16.20;93.30;;;;;;4957229;28;92536;-76
2023/03/17 10:28:34;;;;;;;5.28;3.65;;;16.20;93.60;;;;;;4958626;28;93132;-76
2023/03/17 10:31:20;;;;;;;5.93;4.18;;;16.30;93.10;;;;;;4958551;28;92499;-76
2023/03/17 10:33:51;;;;;;;4.65;3.65;;;16.30;93.10;;;;;;4957328;28;92638;-76
2023/03/17 10:36:33;;;;;;;5.25;3.63;;;16.20;93.40;;;;;;4958660;28;92402;-76
2023/03/17 10:39:06;;;;;;;5.60;3.55;;;16.40;93.00;;;;;;4958476;28;93378;-76
2023/03/17 10:41:39;;;;;;;4.72;4.13;;;16.40;93.70;;;;;;4959009;28;92988;-76
2023/03/17 10:44:21;;;;;;;4.43;4.03;;;16.40;93.70;;;;;;4972576;28;92615;-76
2023/03/17 10:46:54;;;;;;;4.85;3.95;;;16.50;93.40;;;;;;4957999;28;92397;-76
2023/03/17 10:49:23;;;;;;;6.78;4.57;;;16.60;93.50;;;;;;4955735;28;98102;-76
2023/03/17 10:51:52;;;;;;;4.53;4.07;;;16.50;93.30;;;;;;4972754;28;97989;-76
2023/03/17 10:54:24;;;;;;;6.45;4.25;;;16.60;93.60;;;;;;4973207;28;92426;-76
2023/03/17 10:57:01;;;;;;;4.97;4.28;;;16.70;93.80;;;;;;4956897;28;92578;-76
2023/03/17 10:59:31;;;;;;;6.72;4.38;;;16.70;93.50;;;;;;4973545;28;93252;-76
2023/03/17 11:02:04;;;;;;;6.57;4.53;;;16.70;93.30;;;;;;4972872;28;95564;-76
2023/03/17 11:04:36;;;;;;;6.47;4.30;;;16.70;93.20;;;;;;4973131;28;92530;-76
2023/03/17 11:07:14;;;;;;;4.82;4.00;;;16.70;93.20;;;;;;4957709;28;91714;-76
2023/03/17 11:09:42;;;;;;;5.90;3.78;;;16.80;93.40;;;;;;4957213;28;94173;-76
2023/03/17 11:12:26;;;;;;;6.90;4.93;;;16.70;93.20;;;;;;4972517;28;95882;-76
2023/03/17 11:15:02;;;;;;;6.68;4.60;;;16.60;92.90;;;;;;4971698;28;95045;-76
2023/03/17 11:17:34;;;;;;;6.05;4.60;;;16.50;93.60;;;;;;4957094;28;92858;-76
2023/03/17 11:20:23;;;;;;;5.27;4.30;;;16.60;93.70;;;;;;4956053;28;95873;-76
2023/03/17 11:23:14;;;;;;;6.07;4.07;;;16.60;93.70;;;;;;4989474;28;92927;-76
2023/03/17 11:25:44;;;;;;;6.75;4.93;;;16.80;93.40;;;;;;4958271;28;92913;-76
2023/03/17 11:28:23;;;;;;;7.10;5.13;;;16.90;93.40;;;;;;4972678;28;92474;-77
2023/03/17 11:31:07;;;;;;;6.57;4.78;;;17.20;93.60;;;;;;4957799;28;93344;-77
2023/03/17 11:34:07;;;;;;;6.75;3.97;;;17.60;93.20;;;;;;4958009;28;92715;-77
2023/03/17 11:36:35;;;;;;;5.75;4.10;;;17.90;92.70;;;;;;4956490;28;92470;-77
2023/03/17 11:39:13;;;;;;;6.28;4.35;;;18.10;92.60;;;;;;4956008;28;92621;-76
2023/03/17 11:42:01;;;;;;;6.20;3.92;;;18.40;92.10;;;;;;4971119;28;95625;-76
2023/03/17 11:44:42;;;;;;;6.68;4.40;;;18.50;91.50;;;;;;4972340;28;95317;-76
2023/03/17 11:47:30;;;;;;;6.25;4.60;;;18.70;91.60;;;;;;4957517;28;93288;-76
2023/03/17 11:50:25;;;;;;;4.88;4.15;;;18.80;92.40;;;;;;4972624;28;92423;-77
2023/03/17 11:53:19;;;;;;;6.35;4.50;;;19.10;91.40;;;;;;4972179;28;95832;-77
2023/03/17 11:55:50;;;;;;;5.57;4.30;;;19.20;90.90;;;;;;4957292;28;92465;-77
2023/03/17 11:58:34;;;;;;;8.30;5.05;;;19.20;90.80;;;;;;4972410;28;92497;-77
2023/03/17 12:01:07;;;;;;;7.70;4.55;;;19.40;91.20;;;;;;4956307;28;91997;-77
2023/03/17 12:03:51;;;;;;;5.22;4.55;;;19.30;91.40;;;;;;4955605;28;95925;-76
2023/03/17 12:06:24;;;;;;;;;;;19.40;91.20;;;;;;4957208;28;93047;-76
2023/03/17 12:08:58;;;;;;;5.85;4.22;;;19.10;91.30;;;;;;4971963;28;94865;-76
2023/03/17 12:11:30;;;;;;;6.45;4.63;;;19.10;91.40;;;;;;4956915;28;93022;-76
2023/03/17 12:14:05;;;;;;;7.65;4.88;;;19.10;91.40;;;;;;4955750;28;95755;-77
2023/03/17 12:16:45;;;;;;;5.85;4.50;;;19.10;91.40;;;;;;4956741;28;93201;-76
2023/03/17 12:19:18;;;;;;;6.45;4.70;;;19.20;91.70;;;;;;4956898;28;92435;-76
2023/03/17 12:22:05;;;;;;;7.78;4.55;;;19.20;91.40;;;;;;4957242;28;92441;-76
2023/03/17 12:24:38;;;;;;;4.72;4.30;;;19.20;91.50;;;;;;4956587;28;93325;-76
2023/03/17 12:27:12;;;;;;;;;;;19.00;91.20;;;;;;4957595;28;92856;-76
2023/03/17 12:29:48;;;;;;;7.97;5.00;;;18.80;91.20;;;;;;4973323;28;92545;-76
2023/03/17 12:32:18;;;;;;;8.52;5.32;;;18.70;91.80;;;;;;4956819;28;92508;-76
2023/03/17 12:34:51;;;;;;;7.05;4.93;;;18.70;92.10;;;;;;4955516;28;96042;-76
2023/03/17 12:37:20;;;;;;;8.25;5.13;;;18.70;92.50;;;;;;4955677;28;95241;-76
2023/03/17 12:40:13;;;;;;;8.18;4.82;;;18.70;92.80;;;;;;4956619;28;92452;-76
2023/03/17 12:42:55;;;;;;;7.40;5.05;;;18.90;92.20;;;;;;4971463;28;92931;-76
2023/03/17 12:45:47;;;;;;;6.07;5.25;;;19.10;91.70;;;;;;4955877;28;93106;-76
2023/03/17 12:48:38;;;;;;;6.88;4.32;;;19.30;91.50;;;;;;4956493;28;92768;-76
2023/03/17 12:51:33;;;;;;;7.45;5.03;;;19.50;91.30;;;;;;4971600;28;92492;-76
2023/03/17 12:54:01;;;;;;;5.70;4.65;;;19.70;90.50;;;;;;4956716;28;91639;-76
2023/03/17 12:56:33;;;;;;;6.57;5.00;;;19.70;90.40;;;;;;4955078;28;92481;-76
2023/03/17 12:59:07;;;;;;;8.27;5.50;;;19.80;89.60;;;;;;4956588;28;93067;-77
2023/03/17 13:01:52;;;;;;;8.48;5.55;;;19.90;89.50;;;;;;4986540;28;94855;-77
2023/03/17 13:04:26;;;;;;;8.13;5.28;;;20.00;89.50;;;;;;4970988;28;92478;-77
2023/03/17 13:07:01;;;;;;;5.43;4.88;;;20.10;89.70;;;;;;4970833;28;97013;-77
2023/03/17 13:09:35;;;;;;;7.38;4.80;;;20.10;90.30;;;;;;4970935;28;92491;-77
2023/03/17 13:12:05;;;;;;;8.30;5.35;;;20.30;89.80;;;;;;4971589;28;92512;-76